Aviation Digital Data Service (ADDS)

Output produced by TAFs form (2112 UTC 22 October 2017)
found at http://www.aviationweather.gov/adds/tafs/
 
KILM 222053Z AUTO 09008KT 10SM CLR 26/17 A3025 RMK AO2 SLP244 T02560167 56015
KILM 221932Z 2220/2318 10008KT P6SM SCT045 
     FM230000 VRB03KT P6SM BKN250 
     FM230800 09003KT 6SM BR SCT040 
     FM231300 14010KT P6SM FEW040 SCT250 
     FM231700 15011KT P6SM VCSH SCT040 BKN250